createdAt,value
2019-01-12T00:00:01.258Z,32.5
2019-01-12T00:00:51.606Z,32.5
2019-01-12T00:01:41.661Z,32.5
2019-01-12T00:02:31.146Z,32.5
2019-01-12T00:03:22.044Z,32.5
2019-01-12T00:04:11.544Z,32.5
2019-01-12T00:05:02.160Z,32.5
2019-01-12T00:05:52.488Z,32.5
2019-01-12T00:06:42.609Z,32.5
2019-01-12T00:07:32.108Z,32.5
2019-01-12T00:08:22.140Z,32.4
2019-01-12T00:09:13.443Z,32.4
2019-01-12T00:10:02.013Z,32.4
2019-01-12T00:10:52.069Z,32.4
2019-01-12T00:11:42.123Z,32.4
2019-01-12T00:12:31.902Z,32.4
2019-01-12T00:13:22.023Z,32.4
2019-01-12T00:14:12.582Z,32.4
2019-01-12T00:15:01.865Z,32.4
2019-01-12T00:15:52.428Z,32.4
2019-01-12T00:34:14.544Z,32.1
2019-01-12T00:35:04.571Z,32.2
2019-01-12T00:35:54.884Z,32.2
2019-01-12T00:36:44.656Z,32.1
2019-01-12T00:37:34.757Z,32.1
2019-01-12T00:38:25.038Z,32.1
2019-01-12T00:39:14.601Z,32.1
2019-01-12T00:40:05.184Z,32.1
2019-01-12T00:40:55.486Z,32.1
2019-01-12T00:41:44.706Z,32.1
2019-01-12T00:42:35.322Z,32.1
2019-01-12T00:43:25.420Z,32.1
2019-01-12T00:44:14.048Z,32.1
2019-01-12T00:45:05.223Z,32.1
2019-01-12T00:45:55.280Z,32.1
2019-01-12T00:46:45.323Z,32.1
2019-01-12T00:47:37.037Z,32
2019-01-12T00:48:24.941Z,32
2019-01-12T00:49:15.769Z,32
2019-01-12T00:50:05.278Z,32
2019-01-12T00:50:55.611Z,32
2019-01-12T00:51:45.438Z,32
2019-01-12T00:52:35.716Z,32
2019-01-12T00:53:25.256Z,31.9
2019-01-12T00:54:15.840Z,31.9
2019-01-12T00:55:05.910Z,31.9
2019-01-12T00:55:55.945Z,31.9
2019-01-12T00:56:45.739Z,31.9
2019-01-12T00:57:36.365Z,31.9
2019-01-12T00:58:26.120Z,31.9
2019-01-12T00:59:15.970Z,31.9
2019-01-12T01:00:06.802Z,31.9
2019-01-12T01:00:56.100Z,31.9
2019-01-12T01:01:46.155Z,31.9
2019-01-12T01:02:36.192Z,31.9
2019-01-12T01:03:25.965Z,31.9
2019-01-12T01:04:16.577Z,31.9
2019-01-12T01:05:05.867Z,31.9
2019-01-12T01:05:56.171Z,31.8
2019-01-12T01:06:45.913Z,31.8
2019-01-12T01:07:37.017Z,31.8
2019-01-12T01:08:26.517Z,31.8
2019-01-12T01:09:16.467Z,31.8
2019-01-12T01:10:06.509Z,31.8
2019-01-12T01:10:56.712Z,31.8
2019-01-12T01:11:46.474Z,31.8
2019-01-12T01:12:36.814Z,31.8
2019-01-12T01:13:26.878Z,31.8
2019-01-12T01:14:17.471Z,31.8
2019-01-12T01:15:07.897Z,31.8
2019-01-12T01:15:56.822Z,31.7
2019-01-12T01:16:46.896Z,31.8
2019-01-12T01:17:36.949Z,31.8
2019-01-12T01:18:26.986Z,31.8
2019-01-12T01:19:16.507Z,31.7
2019-01-12T01:20:07.608Z,31.7
2019-01-12T01:20:57.366Z,31.7
2019-01-12T01:21:47.163Z,31.7
2019-01-12T01:22:38.048Z,31.7
2019-01-12T01:23:27.543Z,31.7
2019-01-12T01:24:18.151Z,31.6
2019-01-12T01:25:08.326Z,31.6
2019-01-12T01:25:58.290Z,31.6
2019-01-12T01:26:48.603Z,31.6
2019-01-12T01:27:38.110Z,31.6
2019-01-12T01:28:28.165Z,31.6
2019-01-12T01:29:18.513Z,31.6
2019-01-12T01:30:08.283Z,31.6
2019-01-12T01:30:58.383Z,31.6
2019-01-12T01:31:48.123Z,31.6
2019-01-12T01:32:38.503Z,31.6
2019-01-12T01:33:33.198Z,31.6
2019-01-12T01:34:18.818Z,31.5
2019-01-12T01:35:08.118Z,31.5
2019-01-12T01:35:59.217Z,31.5
2019-01-12T01:36:48.730Z,31.5
2019-01-12T01:37:39.334Z,31.5
2019-01-12T01:38:28.826Z,31.4
2019-01-12T01:39:18.903Z,31.4
2019-01-12T01:40:08.385Z,31.4
2019-01-12T01:40:59.547Z,31.4
2019-01-12T01:41:48.572Z,31.5
2019-01-12T01:42:38.923Z,31.4
2019-01-12T01:43:28.977Z,31.4
2019-01-12T01:44:17.980Z,31.4
2019-01-12T01:45:09.145Z,31.4
2019-01-12T01:45:58.637Z,31.4
2019-01-12T01:46:49.389Z,31.4
2019-01-12T01:47:39.506Z,31.4
2019-01-12T01:48:30.074Z,31.4
2019-01-12T01:49:19.294Z,31.3
2019-01-12T01:50:10.167Z,31.4
2019-01-12T01:50:59.999Z,31.4
2019-01-12T01:51:49.469Z,31.3
2019-01-12T01:52:39.794Z,31.4
2019-01-12T01:53:29.312Z,31.3
2019-01-12T01:54:20.456Z,31.4
2019-01-12T01:55:09.707Z,31.3
2019-01-12T01:55:59.741Z,31.3
2019-01-12T01:56:49.844Z,31.3
2019-01-12T01:57:40.171Z,31.3
2019-01-12T01:58:30.221Z,31.3
2019-01-12T01:59:20.806Z,31.3
2019-01-12T02:00:10.598Z,31.3
2019-01-12T02:01:00.938Z,31.3
2019-01-12T02:01:50.210Z,31.3
2019-01-12T02:02:41.011Z,31.3
2019-01-12T02:03:30.818Z,31.3
2019-01-12T02:04:20.863Z,31.3
2019-01-12T02:05:10.650Z,31.2
2019-01-12T02:05:59.648Z,31.2
2019-01-12T02:06:51.048Z,31.2
2019-01-12T02:07:41.070Z,31.2
2019-01-12T02:08:31.221Z,31.2
2019-01-12T02:09:21.190Z,31.1
2019-01-12T02:10:11.565Z,31.1
2019-01-12T02:11:00.760Z,31.1
2019-01-12T02:11:51.670Z,31.1
2019-01-12T02:12:40.953Z,31.1
2019-01-12T02:13:30.670Z,31.1
2019-01-12T02:14:21.527Z,31.1
2019-01-12T02:15:11.075Z,31.1
2019-01-12T02:16:01.663Z,31.1
2019-01-12T02:16:51.165Z,31.1
2019-01-12T02:17:41.810Z,31.1
2019-01-12T02:18:31.570Z,31.1
2019-01-12T02:19:21.620Z,31.1
2019-01-12T02:20:11.468Z,31.1
2019-01-12T02:21:01.730Z,31.1
2019-01-12T02:21:52.063Z,31
2019-01-12T02:22:42.407Z,31.1
2019-01-12T02:23:31.887Z,31
2019-01-12T02:24:21.982Z,31
2019-01-12T02:25:12.302Z,31
2019-01-12T02:26:02.625Z,31
2019-01-12T02:26:51.285Z,31
2019-01-12T02:27:41.882Z,31
2019-01-12T02:28:32.793Z,31
2019-01-12T02:29:22.286Z,31
2019-01-12T02:30:12.400Z,30.9
2019-01-12T02:31:02.699Z,31
2019-01-12T02:31:52.517Z,30.9
2019-01-12T02:32:42.873Z,31
2019-01-12T02:33:33.142Z,30.9
2019-01-12T02:34:22.740Z,30.9
2019-01-12T02:35:12.999Z,30.9
2019-01-12T02:36:02.764Z,30.9
2019-01-12T02:36:53.499Z,30.9
2019-01-12T02:37:43.128Z,30.9
2019-01-12T02:38:32.936Z,30.9
2019-01-12T02:39:23.277Z,30.9
2019-01-12T02:40:12.641Z,30.9
2019-01-12T02:41:02.343Z,30.9
2019-01-12T02:41:53.164Z,30.9
2019-01-12T02:42:43.201Z,30.8
2019-01-12T02:43:32.446Z,30.9
2019-01-12T02:44:23.606Z,30.8
2019-01-12T02:45:13.393Z,30.8
2019-01-12T02:46:04.082Z,30.8
2019-01-12T02:46:52.951Z,30.8
2019-01-12T02:47:43.590Z,30.8
2019-01-12T02:48:33.870Z,30.8
2019-01-12T02:49:23.961Z,30.8
2019-01-12T02:50:14.026Z,30.8
2019-01-12T02:51:03.513Z,30.8
2019-01-12T02:51:53.850Z,30.8
2019-01-12T02:52:43.916Z,30.8
2019-01-12T02:53:34.223Z,30.8
2019-01-12T02:54:23.989Z,30.8
2019-01-12T02:55:14.268Z,30.8
2019-01-12T02:56:04.178Z,30.7
2019-01-12T02:56:54.458Z,30.7
2019-01-12T02:57:44.327Z,30.7
2019-01-12T02:58:34.848Z,30.7
2019-01-12T02:59:24.357Z,30.7
2019-01-12T03:00:15.003Z,30.7
2019-01-12T03:01:04.817Z,30.7
2019-01-12T03:01:54.782Z,30.7
2019-01-12T03:02:44.592Z,30.7
2019-01-12T03:03:34.360Z,30.6
2019-01-12T03:04:24.521Z,30.6
2019-01-12T03:05:14.772Z,30.6
2019-01-12T03:06:05.165Z,30.6
2019-01-12T03:06:54.852Z,30.6
2019-01-12T03:07:44.434Z,30.6
2019-01-12T03:08:35.266Z,30.6
2019-01-12T03:09:24.993Z,30.6
2019-01-12T03:10:15.435Z,30.6
2019-01-12T03:11:05.699Z,30.6
2019-01-12T03:11:55.755Z,30.6
2019-01-12T03:12:44.980Z,30.6
2019-01-12T03:13:35.892Z,30.6
2019-01-12T03:14:24.852Z,30.6
2019-01-12T03:15:14.929Z,30.6
2019-01-12T03:16:05.254Z,30.6
2019-01-12T03:16:55.836Z,30.5
2019-01-12T03:17:45.934Z,30.5
2019-01-12T03:18:36.197Z,30.5
2019-01-12T03:19:26.046Z,30.5
2019-01-12T03:20:15.784Z,30.5
2019-01-12T03:21:06.191Z,30.5
2019-01-12T03:21:56.454Z,30.5
2019-01-12T03:22:46.270Z,30.5
2019-01-12T03:23:36.039Z,30.4
2019-01-12T03:24:26.127Z,30.4
2019-01-12T03:25:24.803Z,30.4
2019-01-12T03:26:05.941Z,30.4
2019-01-12T03:26:55.951Z,30.4
2019-01-12T03:27:45.486Z,30.4
2019-01-12T03:28:36.666Z,30.4
2019-01-12T03:29:26.292Z,30.4
2019-01-12T03:30:16.628Z,30.4
2019-01-12T03:31:06.995Z,30.4
2019-01-12T03:31:57.089Z,30.4
2019-01-12T03:32:46.272Z,30.4
2019-01-12T03:33:37.346Z,30.4
2019-01-12T03:34:27.001Z,30.4
2019-01-12T03:35:16.985Z,30.4
2019-01-12T03:36:06.270Z,30.4
2019-01-12T03:36:56.598Z,30.4
2019-01-12T03:37:47.255Z,30.3
2019-01-12T03:38:36.464Z,30.4
2019-01-12T03:39:27.062Z,30.3
2019-01-12T03:40:17.811Z,30.3
2019-01-12T03:41:07.758Z,30.3
2019-01-12T03:41:56.696Z,30.3
2019-01-12T03:42:47.001Z,30.3
2019-01-12T03:43:37.632Z,30.3
2019-01-12T03:44:27.175Z,30.3
2019-01-12T03:45:17.783Z,30.3
2019-01-12T03:46:07.367Z,30.3
2019-01-12T03:46:58.097Z,30.3
2019-01-12T03:47:47.995Z,30.3
2019-01-12T03:48:37.715Z,30.3
2019-01-12T03:49:28.032Z,30.3
2019-01-12T03:50:17.813Z,30.3
2019-01-12T03:51:07.298Z,30.3
2019-01-12T03:51:58.159Z,30.2
2019-01-12T03:52:48.544Z,30.2
2019-01-12T03:53:38.059Z,30.3
2019-01-12T03:54:28.078Z,30.2
2019-01-12T03:55:26.513Z,30.2
2019-01-12T03:56:07.954Z,30.2
2019-01-12T03:56:58.281Z,30.2
2019-01-12T03:57:48.624Z,30.1
2019-01-12T03:58:38.160Z,30.1
2019-01-12T03:59:28.404Z,30.1
2019-01-12T04:00:18.801Z,30.1
2019-01-12T04:01:09.166Z,30.1
2019-01-12T04:01:58.916Z,30.1
2019-01-12T04:02:49.420Z,30.1
2019-01-12T04:03:38.746Z,30.1
2019-01-12T04:04:29.058Z,30.1
2019-01-12T04:05:18.834Z,30.1
2019-01-12T04:06:09.420Z,30.1
2019-01-12T04:06:58.926Z,30.1
2019-01-12T04:07:49.283Z,30.1
2019-01-12T04:08:39.358Z,30.1
2019-01-12T04:09:29.120Z,30.1
2019-01-12T04:10:19.471Z,30.1
2019-01-12T04:11:09.808Z,30.1
2019-01-12T04:11:59.273Z,30.1
2019-01-12T04:12:49.344Z,30
2019-01-12T04:13:39.665Z,30
2019-01-12T04:14:29.440Z,30.1
2019-01-12T04:15:19.810Z,30.1
2019-01-12T04:16:09.833Z,30
2019-01-12T04:16:59.895Z,30.1
2019-01-12T04:17:50.013Z,30
2019-01-12T04:18:39.694Z,30
2019-01-12T04:19:30.053Z,30
2019-01-12T04:20:19.610Z,30
2019-01-12T04:21:09.321Z,29.9
2019-01-12T04:22:00.220Z,30
2019-01-12T04:22:50.266Z,29.9
2019-01-12T04:23:40.384Z,29.9
2019-01-12T04:24:30.659Z,29.9
2019-01-12T04:25:38.346Z,30
2019-01-12T04:26:09.938Z,29.9
2019-01-12T04:27:00.585Z,30
2019-01-12T04:27:50.105Z,29.9
2019-01-12T04:28:40.236Z,29.9
2019-01-12T04:29:30.261Z,29.9
2019-01-12T04:30:20.589Z,29.9
2019-01-12T04:31:10.495Z,29.9
2019-01-12T04:32:00.148Z,29.9
2019-01-12T04:32:49.730Z,29.9
2019-01-12T04:33:40.249Z,29.9
2019-01-12T04:34:31.071Z,29.9
2019-01-12T04:35:21.393Z,29.9
2019-01-12T04:36:10.628Z,29.9
2019-01-12T04:37:00.669Z,29.9
2019-01-12T04:37:51.309Z,29.8
2019-01-12T04:38:40.574Z,29.9
2019-01-12T04:39:31.706Z,29.9
2019-01-12T04:40:21.248Z,29.8
2019-01-12T04:41:11.530Z,29.8
2019-01-12T04:42:01.838Z,29.8
2019-01-12T04:42:51.723Z,29.8
2019-01-12T04:43:41.389Z,29.8
2019-01-12T04:44:31.159Z,29.8
2019-01-12T04:45:22.058Z,29.8
2019-01-12T04:46:11.884Z,29.8
2019-01-12T05:03:25.569Z,29.6
2019-01-12T05:04:14.632Z,29.6
2019-01-12T05:05:07.117Z,29.7
2019-01-12T05:06:24.762Z,29.7
2019-01-12T05:07:07.212Z,29.6
2019-01-12T05:08:33.283Z,29.6
2019-01-12T05:09:21.267Z,29.6
2019-01-12T05:10:12.373Z,29.6
2019-01-12T05:11:01.552Z,29.6
2019-01-12T05:12:24.211Z,29.6
2019-01-12T05:12:50.792Z,29.6
2019-01-12T05:13:40.894Z,29.6
2019-01-12T05:14:34.738Z,29.6
2019-01-12T05:15:20.854Z,29.6
2019-01-12T05:17:01.377Z,29.6
2019-01-12T05:17:51.572Z,29.6
2019-01-12T05:18:40.958Z,29.6
2019-01-12T05:20:26.783Z,29.6
2019-01-12T05:21:31.814Z,29.6
2019-01-12T05:22:07.273Z,29.6
2019-01-12T09:17:48.186Z,26.1
2019-01-12T09:18:37.960Z,26.1
2019-01-12T09:19:28.322Z,26.1
2019-01-12T09:20:18.405Z,26.1
2019-01-12T09:21:08.670Z,26.1
2019-01-12T09:21:58.500Z,26.1
2019-01-12T09:22:48.775Z,26.1
2019-01-12T09:23:38.863Z,26.1
2019-01-12T09:24:28.887Z,26.1
2019-01-12T09:25:18.983Z,26
2019-01-12T09:26:08.770Z,26
2019-01-12T09:26:58.510Z,26
2019-01-12T09:27:48.845Z,26
2019-01-12T09:28:38.683Z,26
2019-01-12T09:29:28.962Z,25.9
2019-01-12T09:30:17.934Z,25.9
2019-01-12T09:31:08.777Z,26
2019-01-12T09:31:58.560Z,25.9
2019-01-12T09:32:49.177Z,25.9
2019-01-12T09:33:39.010Z,25.9
2019-01-12T09:34:29.674Z,25.9
2019-01-12T09:35:19.635Z,25.9
2019-01-12T09:36:09.437Z,25.9
2019-01-12T09:36:59.194Z,25.9
2019-01-12T09:37:49.814Z,25.9
2019-01-12T09:38:39.022Z,25.9
2019-01-12T09:39:29.640Z,25.9
2019-01-12T09:40:20.045Z,30.4
2019-01-12T09:41:09.747Z,36.2
2019-01-12T09:42:00.090Z,36.4
2019-01-12T09:42:50.163Z,38.2
2019-01-12T09:43:39.640Z,38.9
2019-01-12T09:44:30.302Z,39
2019-01-12T09:45:20.325Z,38.9
2019-01-12T09:46:10.093Z,38.7
2019-01-12T09:47:00.145Z,38.4
2019-01-12T09:47:50.225Z,38.1
2019-01-12T09:48:40.037Z,37.8
2019-01-12T09:49:30.072Z,37.5
2019-01-12T09:50:20.173Z,37.2
2019-01-12T09:51:10.437Z,36.9
2019-01-12T09:52:00.500Z,36.6
2019-01-12T09:52:50.615Z,36.3
2019-01-12T09:53:40.880Z,36.1
2019-01-12T09:54:30.721Z,35.8
2019-01-12T09:55:20.456Z,35.6
2019-01-12T09:56:10.774Z,35.3
2019-01-12T09:57:00.846Z,35.1
2019-01-12T09:57:51.019Z,34.9
2019-01-12T09:58:40.942Z,34.6
2019-01-12T09:59:32.563Z,34.4
2019-01-12T10:00:20.533Z,34.3
2019-01-12T10:01:11.109Z,34.1
2019-01-12T10:02:01.595Z,34.6
2019-01-12T10:02:51.441Z,39.3
2019-01-12T10:03:41.089Z,39.5
2019-01-12T10:04:31.365Z,41.8
2019-01-12T10:05:21.426Z,44.5
2019-01-12T10:06:11.741Z,44.9
2019-01-12T10:07:01.298Z,44.3
2019-01-12T10:07:51.640Z,43.6
2019-01-12T10:08:41.073Z,43.1
2019-01-12T10:09:31.686Z,42.7
2019-01-12T10:10:23.234Z,42.3
2019-01-12T10:11:11.516Z,41.9
2019-01-12T10:12:01.881Z,41.6
2019-01-12T10:12:51.696Z,41.2
2019-01-12T10:13:41.413Z,40.8
2019-01-12T10:14:32.023Z,40.4
2019-01-12T10:15:22.096Z,40.1
2019-01-12T10:16:11.856Z,39.8
2019-01-12T10:17:02.327Z,40.3
2019-01-12T10:17:52.533Z,42.1
2019-01-12T10:18:41.463Z,41.9
2019-01-12T10:19:32.085Z,44.2
2019-01-12T10:20:22.433Z,46.2
2019-01-12T10:21:11.918Z,46.6
2019-01-12T10:22:02.300Z,45.9
2019-01-12T10:22:51.215Z,44.8
2019-01-12T10:23:41.845Z,43.9
2019-01-12T10:24:32.981Z,43.3
2019-01-12T10:25:23.053Z,42.8
2019-01-12T10:26:13.125Z,42.3
2019-01-12T10:27:04.013Z,41.9
2019-01-12T10:27:53.200Z,41.5
2019-01-12T10:28:42.995Z,41.2
2019-01-12T10:29:33.050Z,40.8
2019-01-12T10:30:22.820Z,40.8
2019-01-12T10:31:12.865Z,42.6
2019-01-12T10:32:03.206Z,42.8
2019-01-12T10:32:53.559Z,44.6
2019-01-12T10:33:43.387Z,46.3
2019-01-12T10:34:33.662Z,46.8
2019-01-12T10:35:23.727Z,46.4
2019-01-12T10:36:13.798Z,46
2019-01-12T10:37:02.742Z,45.9
2019-01-12T10:37:53.627Z,45.8
2019-01-12T10:38:43.647Z,45.9
2019-01-12T10:39:33.699Z,45.9
2019-01-12T10:40:23.582Z,46
2019-01-12T10:41:14.179Z,46.1
2019-01-12T10:42:03.602Z,46.1
2019-01-12T10:42:54.274Z,46.1
2019-01-12T10:43:44.014Z,46
2019-01-12T10:44:34.091Z,45.8
2019-01-12T10:45:24.121Z,45.7
2019-01-12T10:46:13.624Z,45.8
2019-01-12T10:47:04.229Z,45.8
2019-01-12T10:47:54.577Z,45.9
2019-01-12T10:48:43.789Z,45.9
2019-01-12T10:49:33.569Z,46.1
2019-01-12T10:50:24.208Z,46.2
2019-01-12T10:51:14.028Z,46.3
2019-01-12T10:52:04.026Z,46.4
2019-01-12T10:52:54.898Z,46.6
2019-01-12T10:55:10.916Z,46.7
2019-01-12T10:56:00.451Z,46.5
2019-01-12T10:56:50.873Z,46.3
2019-01-12T10:57:40.551Z,46
2019-01-12T10:58:30.906Z,45.3
2019-01-12T10:59:20.941Z,44.7
2019-01-12T11:00:09.661Z,44.1
2019-01-12T11:01:00.824Z,43.3
2019-01-12T11:01:51.095Z,42.6
2019-01-12T11:02:40.645Z,41.8
2019-01-12T11:03:30.983Z,41
2019-01-12T11:04:21.573Z,40.3
2019-01-12T11:05:10.783Z,39.6
2019-01-12T11:06:00.863Z,38.9
2019-01-12T11:06:51.495Z,38.4
2019-01-12T11:07:42.868Z,37.9
2019-01-12T11:08:31.300Z,37.3
2019-01-12T11:09:21.060Z,36.9
2019-01-12T11:10:11.690Z,36.4
2019-01-12T11:11:01.187Z,35.9
2019-01-12T11:11:51.790Z,35.8
2019-01-12T11:12:41.572Z,35.9
2019-01-12T11:13:32.180Z,36.1
2019-01-12T11:14:22.250Z,36.2
2019-01-12T11:15:13.440Z,35.6
2019-01-12T11:16:01.790Z,34.7
2019-01-12T11:16:51.671Z,34.3
2019-01-12T11:17:41.988Z,33.9
2019-01-12T11:18:31.805Z,33.2
2019-01-12T11:19:21.765Z,32.4
2019-01-12T11:20:12.090Z,31.8
2019-01-12T11:21:02.697Z,31.3
2019-01-12T11:21:52.467Z,30.8
2019-01-12T11:22:42.257Z,30.3
2019-01-12T11:23:32.578Z,29.6
2019-01-12T11:24:22.087Z,29.1
2019-01-12T11:25:12.702Z,28.9
2019-01-12T11:26:02.487Z,28.9
2019-01-12T11:26:53.120Z,28.9
2019-01-12T11:27:42.329Z,28.8
2019-01-12T11:28:32.386Z,28.8
2019-01-12T11:29:22.431Z,28.8
2019-01-12T11:30:13.083Z,28.7
2019-01-12T11:31:03.115Z,28.6
2019-01-12T11:31:52.666Z,28.7
2019-01-12T11:32:43.212Z,28.6
2019-01-12T11:33:32.516Z,28.6
2019-01-12T11:34:23.136Z,28.6
2019-01-12T11:35:12.896Z,28.4
2019-01-12T11:36:02.966Z,28.2
2019-01-12T11:37:42.145Z,27.6
2019-01-12T11:38:32.126Z,27.7
2019-01-12T11:41:03.099Z,27.7
2019-01-12T11:41:53.298Z,27.5
2019-01-12T11:42:44.228Z,27.3
2019-01-12T11:43:33.198Z,27.3
2019-01-12T11:44:23.523Z,27.1
2019-01-12T11:45:13.853Z,26.9
2019-01-12T11:46:04.170Z,26.8
2019-01-12T11:46:54.463Z,26.8
2019-01-12T11:47:43.715Z,26.6
2019-01-12T11:48:34.033Z,26.6
2019-01-12T11:49:24.095Z,26.6
2019-01-12T11:50:14.440Z,26.4
2019-01-12T11:51:04.200Z,26.1
2019-01-12T11:51:53.962Z,25.8
2019-01-12T11:52:44.887Z,25.6
2019-01-12T11:53:34.193Z,25.5
2019-01-12T11:54:24.705Z,25.4
2019-01-12T11:55:14.788Z,25.4
2019-01-12T11:56:04.812Z,25.4
2019-01-12T11:56:54.399Z,25.4
2019-01-12T11:57:44.745Z,25.3
2019-01-12T11:58:35.657Z,25.3
2019-01-12T11:59:24.615Z,25.3
2019-01-12T12:00:14.624Z,25.4
2019-01-12T12:01:03.859Z,25.4
2019-01-12T12:01:54.457Z,25.5
2019-01-12T12:02:44.545Z,25.6
2019-01-12T12:03:34.409Z,25.7
2019-01-12T12:04:24.426Z,25.8
2019-01-12T12:05:14.226Z,25.8
2019-01-12T12:06:04.002Z,25.8
2019-01-12T12:06:54.339Z,26
2019-01-12T12:07:44.594Z,26.2
2019-01-12T12:08:35.422Z,26.4
2019-01-12T12:09:26.050Z,26.6
2019-01-12T12:10:15.521Z,26.8
2019-01-12T12:11:05.029Z,26.8
2019-01-12T12:11:55.921Z,26.9
2019-01-12T12:12:46.251Z,27
2019-01-12T12:13:36.296Z,27.1
2019-01-12T12:14:26.102Z,27.3
2019-01-12T12:15:15.874Z,27.5
2019-01-12T12:16:08.516Z,27.7
2019-01-12T12:16:55.994Z,27.9
2019-01-12T12:17:46.586Z,28.1
2019-01-12T12:18:36.648Z,28.2
2019-01-12T12:19:26.716Z,28.4
2019-01-12T12:20:16.826Z,28.5
2019-01-12T12:21:06.831Z,28.6
2019-01-12T12:21:56.646Z,28.8
2019-01-12T12:22:46.650Z,28.6
2019-01-12T12:23:35.879Z,28.4
2019-01-12T12:24:26.793Z,28.2
2019-01-12T12:25:16.571Z,28.1
2019-01-12T12:26:06.900Z,28
2019-01-12T12:26:57.068Z,28.1
2019-01-12T12:27:46.740Z,28.2
2019-01-12T12:28:36.275Z,28.1
2019-01-12T12:29:26.878Z,28.1
2019-01-12T12:30:16.635Z,28.2
2019-01-12T12:31:06.957Z,28.3
2019-01-12T12:31:57.399Z,28.3
2019-01-12T12:32:47.355Z,28.3
2019-01-12T12:33:36.034Z,28.4
2019-01-12T12:34:27.258Z,28.4
2019-01-12T12:35:17.825Z,28.3
2019-01-12T12:36:06.762Z,28.3
2019-01-12T12:36:57.393Z,28.3
2019-01-12T12:37:47.173Z,28.2
2019-01-12T12:38:37.479Z,28.1
2019-01-12T12:39:27.834Z,28.1
2019-01-12T12:41:07.477Z,27.8
2019-01-12T12:42:48.072Z,27.9
2019-01-12T12:43:38.143Z,28
2019-01-12T12:44:28.501Z,28.1
2019-01-12T12:45:18.019Z,28.1
2019-01-12T12:46:08.315Z,28.1
2019-01-12T12:46:57.864Z,28.2
2019-01-12T12:47:48.441Z,28.1
2019-01-12T12:48:38.736Z,28.2
2019-01-12T12:49:28.509Z,28.2
2019-01-12T12:50:18.298Z,28.3
2019-01-12T12:51:08.627Z,28.3
2019-01-12T12:51:58.708Z,28.3
2019-01-12T12:52:47.924Z,28.3
2019-01-12T12:53:39.975Z,28.1
2019-01-12T12:54:28.601Z,27.9
2019-01-12T12:55:18.128Z,27.9
2019-01-12T12:56:09.261Z,28
2019-01-12T12:56:58.495Z,28.1
2019-01-12T12:57:48.820Z,28.2
2019-01-12T12:58:38.905Z,28.3
2019-01-12T12:59:28.511Z,28.3
2019-01-12T13:00:18.803Z,28.3
2019-01-12T13:01:09.336Z,28.3
2019-01-12T13:01:59.383Z,28.3
2019-01-12T13:02:49.462Z,28.4
2019-01-12T13:03:39.515Z,28.4
2019-01-12T13:04:29.030Z,28.4
2019-01-12T13:05:19.075Z,28.5
2019-01-12T13:06:09.400Z,28.6
2019-01-12T13:06:59.240Z,28.6
2019-01-12T13:07:50.063Z,28.7
2019-01-12T13:08:39.855Z,28.8
2019-01-12T13:09:29.915Z,28.8
2019-01-12T13:10:19.972Z,28.8
2019-01-12T13:11:09.217Z,28.9
2019-01-12T13:12:00.363Z,28.9
2019-01-12T13:12:49.605Z,28.9
2019-01-12T13:13:39.925Z,28.9
2019-01-12T13:14:30.532Z,29
2019-01-12T13:15:20.070Z,29.1
2019-01-12T13:16:10.404Z,29.1
2019-01-12T13:17:00.750Z,29.1
2019-01-12T13:17:49.672Z,29.1
2019-01-12T13:18:40.262Z,29.2
2019-01-12T13:19:30.114Z,29.2
2019-01-12T13:20:21.600Z,29.3
2019-01-12T13:21:10.480Z,29.3
2019-01-12T13:22:00.521Z,29.4
2019-01-12T13:22:52.155Z,29.4
2019-01-12T13:23:40.924Z,29.5
2019-01-12T13:24:30.959Z,29.5
2019-01-12T13:25:20.530Z,29.5
2019-01-12T13:26:11.093Z,29.6
2019-01-12T13:27:01.486Z,29.6
2019-01-12T13:27:50.644Z,29.6
2019-01-12T13:28:40.686Z,29.6
2019-01-12T13:29:31.009Z,29.6
2019-01-12T13:30:21.086Z,29.7
2019-01-12T13:31:10.869Z,29.7
2019-01-12T13:32:01.216Z,29.7
2019-01-12T13:32:51.241Z,29.7
2019-01-12T13:33:40.517Z,29.7
2019-01-12T13:34:31.651Z,29.7
2019-01-12T13:35:21.447Z,29.8
2019-01-12T13:36:11.488Z,29.8
2019-01-12T13:37:01.526Z,29.8
2019-01-12T13:37:52.203Z,29.8
2019-01-12T13:38:41.383Z,29.8
2019-01-12T13:39:37.344Z,29.8
2019-01-12T13:40:22.995Z,29.8
2019-01-12T13:41:11.938Z,29.8
2019-01-12T13:42:01.413Z,29.8
2019-01-12T13:42:51.408Z,29.7
2019-01-12T13:43:42.258Z,29.8
2019-01-12T13:44:31.796Z,29.7
2019-01-12T13:45:22.668Z,29.7
2019-01-12T13:46:12.163Z,29.7
2019-01-12T13:47:02.220Z,29.6
2019-01-12T13:47:52.583Z,29.6
2019-01-12T13:48:42.407Z,29.6
2019-01-12T13:49:32.408Z,29.3
2019-01-12T13:50:21.427Z,28.9
2019-01-12T13:51:12.512Z,28.7
2019-01-12T13:52:02.573Z,28.5
2019-01-12T13:52:53.222Z,28.4
2019-01-12T13:53:41.650Z,28.4
2019-01-12T13:54:33.097Z,28.4
2019-01-12T13:55:23.165Z,28.3
2019-01-12T13:56:12.859Z,28.3
2019-01-12T13:57:03.192Z,28.1
2019-01-12T13:57:54.074Z,28.1
2019-01-12T13:58:43.577Z,28
2019-01-12T13:59:33.082Z,27.9
2019-01-12T14:00:22.612Z,27.9
2019-01-12T14:01:13.492Z,27.9
2019-01-12T14:02:03.834Z,27.8
2019-01-12T14:02:53.802Z,27.7
2019-01-12T14:03:43.384Z,27.6
2019-01-12T14:04:33.429Z,27.6
2019-01-12T14:05:24.102Z,27.6
2019-01-12T14:06:14.094Z,27.6
2019-01-12T14:07:05.406Z,27.6
2019-01-12T14:08:01.429Z,27.6
2019-01-12T14:08:43.686Z,27.5
2019-01-12T14:09:47.490Z,27.4
2019-01-12T14:10:23.834Z,27.4
2019-01-12T14:11:13.369Z,27.4
2019-01-12T14:12:03.761Z,27.3
2019-01-12T14:12:53.811Z,27.3
2019-01-12T14:13:44.904Z,27.3
2019-01-12T14:14:34.387Z,27.3
2019-01-12T14:15:23.912Z,27.2
2019-01-12T14:16:13.771Z,27.1
2019-01-12T14:17:04.614Z,27.1
2019-01-12T14:17:54.656Z,27
2019-01-12T14:18:44.206Z,27
2019-01-12T14:19:34.737Z,26.9
2019-01-12T14:20:24.809Z,26.9
2019-01-12T14:21:14.636Z,26.9
2019-01-12T14:22:04.633Z,26.8
2019-01-12T14:22:55.250Z,26.8
2019-01-12T14:23:44.748Z,26.7
2019-01-12T14:24:35.363Z,26.6
2019-01-12T14:25:24.873Z,26.5
2019-01-12T14:26:14.925Z,26.4
2019-01-12T14:27:04.982Z,26.4
2019-01-12T14:27:59.386Z,26.3
2019-01-12T14:28:44.585Z,26.1
2019-01-12T14:29:35.147Z,25.8
2019-01-12T14:30:25.470Z,25.6
2019-01-12T14:31:15.542Z,25.4
2019-01-12T14:32:05.860Z,25.2
2019-01-12T14:32:55.688Z,25
2019-01-12T14:33:45.747Z,24.9
2019-01-12T14:34:35.533Z,24.8
2019-01-12T14:35:25.002Z,24.6
2019-01-12T14:36:15.367Z,24.4
2019-01-12T14:37:05.670Z,24.3
2019-01-12T14:37:56.282Z,24.3
2019-01-12T14:38:45.842Z,24.1
2019-01-12T14:39:35.837Z,24
2019-01-12T14:40:26.494Z,23.9
2019-01-12T14:41:15.734Z,23.8
2019-01-12T14:42:05.744Z,23.7
2019-01-12T14:42:56.059Z,23.6
2019-01-12T14:43:46.393Z,23.5
2019-01-12T14:44:35.481Z,23.4
2019-01-12T14:45:26.235Z,23.3
2019-01-12T14:46:16.317Z,23.3
2019-01-12T14:47:06.760Z,23.2
2019-01-12T14:47:56.407Z,23.1
2019-01-12T14:48:46.497Z,23
2019-01-12T14:49:37.094Z,22.9
2019-01-12T14:50:26.304Z,22.9
2019-01-12T14:51:16.734Z,22.8
2019-01-12T14:52:06.187Z,22.8
2019-01-12T14:52:56.485Z,22.7
2019-01-12T14:53:46.830Z,22.6
2019-01-12T14:54:37.427Z,22.6
2019-01-12T14:55:27.511Z,22.5
2019-01-12T14:56:16.706Z,22.4
2019-01-12T14:57:07.330Z,22.3
2019-01-12T14:58:06.222Z,22.3
2019-01-12T14:58:47.374Z,22.1
2019-01-12T14:59:36.767Z,22.1
2019-01-12T15:00:27.280Z,22
2019-01-12T15:01:17.518Z,21.9
2019-01-12T15:02:06.301Z,21.8
2019-01-12T15:02:57.371Z,21.8
2019-01-12T15:03:48.032Z,21.6
2019-01-12T15:04:37.915Z,21.6
2019-01-12T15:05:28.423Z,21.5
2019-01-12T15:06:17.986Z,21.4
2019-01-12T15:07:07.926Z,21.4
2019-01-12T15:07:57.783Z,21.3
2019-01-12T15:08:47.845Z,21.3
2019-01-12T15:09:37.891Z,21.2
2019-01-12T15:11:18.024Z,21.1
2019-01-12T15:12:08.606Z,21
2019-01-12T15:12:58.403Z,20.9
2019-01-12T15:13:48.458Z,20.9
2019-01-12T15:14:38.787Z,20.8
2019-01-12T15:15:28.278Z,20.8
2019-01-12T15:16:18.602Z,20.7
2019-01-12T15:17:23.047Z,20.7
2019-01-12T15:17:58.447Z,20.6
2019-01-12T15:18:49.055Z,20.6
2019-01-12T15:19:38.826Z,20.6
2019-01-12T15:20:28.626Z,20.5
2019-01-12T15:21:18.391Z,20.4
2019-01-12T15:22:09.014Z,20.4
2019-01-12T15:22:59.081Z,20.4
2019-01-12T15:23:49.406Z,20.3
2019-01-12T15:24:39.178Z,20.3
2019-01-12T15:25:29.523Z,20.3
2019-01-12T15:26:18.253Z,20.2
2019-01-12T15:27:08.595Z,20.2
2019-01-12T15:27:58.963Z,20.1
2019-01-12T15:28:48.995Z,20.1
2019-01-12T15:29:39.040Z,20.1
2019-01-12T15:30:29.589Z,20.1
2019-01-12T15:31:22.240Z,20
2019-01-12T15:32:09.971Z,20
2019-01-12T15:32:59.478Z,19.9
2019-01-12T15:33:49.011Z,19.9
2019-01-12T15:34:39.850Z,19.9
2019-01-12T15:35:29.920Z,19.9
2019-01-12T15:36:19.963Z,19.8
2019-01-12T15:37:10.017Z,19.8
2019-01-12T15:38:00.091Z,19.8
2019-01-12T15:38:49.874Z,19.8
2019-01-12T15:39:40.192Z,19.8
2019-01-12T15:40:29.962Z,19.7
2019-01-12T15:41:20.027Z,19.7
2019-01-12T15:42:09.815Z,19.6
2019-01-12T15:43:00.123Z,19.6
2019-01-12T15:43:50.245Z,19.6
2019-01-12T15:44:40.244Z,19.6
2019-01-12T15:45:30.874Z,19.6
2019-01-12T15:46:20.920Z,19.6
2019-01-12T15:47:10.267Z,19.5